createdAt,value
2018-12-16T00:35:51.472Z,99862.92
2018-12-16T00:38:24.661Z,99858.42
2018-12-16T00:40:57.274Z,99851.54
2018-12-16T00:43:29.878Z,99839.22
2018-12-16T00:46:02.707Z,99846.63
2018-12-16T00:48:35.302Z,99828.78
2018-12-16T00:51:08.869Z,99820.52
2018-12-16T00:53:41.506Z,99820.07
2018-12-16T00:56:14.144Z,99823.76
2018-12-16T00:58:46.621Z,99831.11
2018-12-16T01:01:19.949Z,99829.02
2018-12-16T01:03:52.664Z,99829.95
2018-12-16T01:06:25.213Z,99824.64
2018-12-16T01:08:57.883Z,99830.16
2018-12-16T01:11:30.422Z,99833.16
2018-12-16T01:14:03.328Z,99820.58
2018-12-16T01:16:37.110Z,99830.17
2018-12-16T01:19:10.354Z,99827.42
2018-12-16T01:21:42.938Z,99827.95
2018-12-16T01:24:15.475Z,99834.11
2018-12-16T01:26:48.086Z,99838.93
2018-12-16T01:29:20.645Z,99836.98
2018-12-16T01:31:53.321Z,99846.74
2018-12-16T01:34:25.888Z,99845.64
2018-12-16T01:36:58.506Z,99841.55
2018-12-16T01:39:31.470Z,99838.28
2018-12-16T01:42:03.994Z,99841.28
2018-12-16T01:44:36.563Z,99831.37
2018-12-16T01:47:09.192Z,99832.44
2018-12-16T01:49:41.874Z,99824.14
2018-12-16T01:52:15.043Z,99813.50
2018-12-16T01:54:47.610Z,99817.19
2018-12-16T01:57:20.148Z,99808.38
2018-12-16T01:59:52.759Z,99809.28
2018-12-16T02:02:25.343Z,99804.36
2018-12-16T02:04:57.957Z,99810.03
2018-12-16T02:07:30.588Z,99816.89
2018-12-16T02:10:04.088Z,99803.87
2018-12-16T02:12:36.799Z,99801.45
2018-12-16T02:15:09.595Z,99796.58
2018-12-16T02:17:44.326Z,99792.06
2018-12-16T02:20:16.915Z,99796.66
2018-12-16T02:22:49.503Z,99785.83
2018-12-16T02:25:22.106Z,99779.00
2018-12-16T02:27:55.140Z,99769.42
2018-12-16T02:30:27.732Z,99762.63
2018-12-16T02:33:00.320Z,99750.33
2018-12-16T02:35:33.045Z,99750.38
2018-12-16T02:38:05.744Z,99742.09
2018-12-16T02:40:38.483Z,99748.75
2018-12-16T02:43:11.027Z,99729.76
2018-12-16T02:45:43.812Z,99731.92
2018-12-16T02:48:17.283Z,99729.49
2018-12-16T02:50:50.398Z,99720.66
2018-12-16T02:53:23.481Z,99714.25
2018-12-16T02:55:56.060Z,99709.98
2018-12-16T02:58:28.735Z,99704.15
2018-12-16T03:01:01.307Z,99699.08
2018-12-16T03:03:35.393Z,99692.65
2018-12-16T03:06:07.903Z,99685.89
2018-12-16T03:08:41.633Z,99678.57
2018-12-16T03:11:14.233Z,99671.84
2018-12-16T03:13:46.923Z,99654.77
2018-12-16T03:16:20.423Z,99647.80
2018-12-16T03:18:53.124Z,99642.97
2018-12-16T03:21:25.615Z,99651.56
2018-12-16T03:23:58.261Z,99653.11
2018-12-16T03:26:35.962Z,99652.84
2018-12-16T03:29:05.427Z,99642.23
2018-12-16T03:31:38.002Z,99633.99
2018-12-16T03:34:10.792Z,99630.70
2018-12-16T03:36:43.444Z,99632.12
2018-12-16T03:39:16.102Z,99626.96
2018-12-16T03:41:48.732Z,99619.29
2018-12-16T03:44:21.827Z,99621.98
2018-12-16T03:46:55.071Z,99609.63
2018-12-16T03:49:27.664Z,99607.78
2018-12-16T03:52:00.219Z,99617.80
2018-12-16T03:54:32.830Z,99621.86
2018-12-16T03:57:05.397Z,99615.96
2018-12-16T03:59:37.909Z,99614.95
2018-12-16T04:02:10.533Z,99606.32
2018-12-16T04:04:43.039Z,99595.78
2018-12-16T04:07:15.650Z,99587.05
2018-12-16T04:09:48.211Z,99578.67
2018-12-16T04:12:20.780Z,99577.84
2018-12-16T04:14:55.254Z,99582.74
2018-12-16T04:17:27.825Z,99570.94
2018-12-16T04:20:00.385Z,99570.11
2018-12-16T04:22:32.911Z,99561.10
2018-12-16T04:25:06.198Z,99548.06
2018-12-16T04:27:38.796Z,99553.59
2018-12-16T04:30:11.384Z,99550.03
2018-12-16T04:32:43.957Z,99541.99
2018-12-16T04:35:16.570Z,99537.26
2018-12-16T04:37:49.132Z,99522.31
2018-12-16T04:40:21.697Z,99510.23
2018-12-16T04:42:54.302Z,99517.64
2018-12-16T04:45:27.712Z,99519.08
2018-12-16T04:48:00.282Z,99515.90
2018-12-16T04:50:32.954Z,99520.77
2018-12-16T04:53:05.645Z,99523.70
2018-12-16T04:55:38.205Z,99520.55
2018-12-16T04:58:10.803Z,99508.30
2018-12-16T05:00:44.789Z,99511.43
2018-12-16T05:03:17.300Z,99508.45
2018-12-16T05:05:49.834Z,99510.52
2018-12-16T05:08:22.425Z,99513.45
2018-12-16T05:10:55.053Z,99508.20
2018-12-16T05:13:28.250Z,99511.36
2018-12-16T05:16:00.839Z,99505.91
2018-12-16T05:18:33.977Z,99499.95
2018-12-16T05:21:06.561Z,99497.29
2018-12-16T05:23:41.982Z,99511.63
2018-12-16T05:26:13.721Z,99509.92
2018-12-16T05:28:46.321Z,99501.14
2018-12-16T05:31:18.851Z,99495.66
2018-12-16T05:33:52.177Z,99496.73
2018-12-16T05:36:24.799Z,99490.70
2018-12-16T05:38:58.776Z,99493.56
2018-12-16T05:41:32.533Z,99502.33
2018-12-16T05:44:05.136Z,99495.24
2018-12-16T05:46:37.744Z,99492.84
2018-12-16T05:49:10.332Z,99500.84
2018-12-16T05:51:42.898Z,99505.72
2018-12-16T05:54:15.469Z,99500.80
2018-12-16T05:56:48.033Z,99496.27
2018-12-16T05:59:20.633Z,99493.75
2018-12-16T06:01:53.104Z,99490.89
2018-12-16T06:04:25.691Z,99485.02
2018-12-16T06:06:58.265Z,99490.20
2018-12-16T06:09:30.846Z,99488.21
2018-12-16T06:12:03.550Z,99485.44
2018-12-16T06:14:36.140Z,99486.96
2018-12-16T06:17:08.697Z,99477.97
2018-12-16T06:19:41.276Z,99471.20
2018-12-16T06:22:13.797Z,99468.34
2018-12-16T06:24:46.379Z,99468.27
2018-12-16T06:27:18.942Z,99463.05
2018-12-16T06:29:51.880Z,99471.20
2018-12-16T06:32:24.526Z,99463.34
2018-12-16T06:34:57.112Z,99472.05
2018-12-16T06:37:29.687Z,99473.53
2018-12-16T06:40:02.381Z,99470.25
2018-12-16T06:42:35.614Z,99475.47
2018-12-16T06:45:08.236Z,99461.33
2018-12-16T06:47:40.786Z,99454.43
2018-12-16T06:50:13.384Z,99458.00
2018-12-16T06:52:45.937Z,99458.09
2018-12-16T06:55:18.503Z,99460.53
2018-12-16T06:57:51.223Z,99462.35
2018-12-16T07:00:23.855Z,99454.92
2018-12-16T07:02:56.469Z,99458.09
2018-12-16T07:05:29.075Z,99468.84
2018-12-16T07:08:01.632Z,99466.17
2018-12-16T07:10:34.576Z,99469.80
2018-12-16T07:13:07.159Z,99464.59
2018-12-16T07:15:39.739Z,99470.36
2018-12-16T07:18:12.420Z,99468.39
2018-12-16T07:20:45.766Z,99459.58
2018-12-16T07:23:18.578Z,99460.19
2018-12-16T07:25:51.257Z,99458.75
2018-12-16T07:28:23.873Z,99468.73
2018-12-16T07:30:56.441Z,99481.63
2018-12-16T07:33:28.961Z,99470.06
2018-12-16T07:36:01.591Z,99470.80
2018-12-16T07:38:34.158Z,99450.44
2018-12-16T07:41:06.997Z,99465.07
2018-12-16T07:43:40.187Z,99459.97
2018-12-16T07:46:12.761Z,99465.67
2018-12-16T07:48:45.895Z,99467.13
2018-12-16T07:51:18.442Z,99469.80
2018-12-16T07:53:50.967Z,99463.70
2018-12-16T07:56:23.599Z,99462.31
2018-12-16T07:58:56.193Z,99468.98
2018-12-16T08:01:28.920Z,99471.59
2018-12-16T08:04:01.621Z,99461.56
2018-12-16T08:06:34.377Z,99467.17
2018-12-16T08:09:07.243Z,99471.47
2018-12-16T08:11:44.751Z,99470.97
2018-12-16T08:14:17.303Z,99466.37
2018-12-16T08:16:50.823Z,99479.06
2018-12-16T08:19:23.551Z,99481.50
2018-12-16T08:21:56.252Z,99479.95
2018-12-16T08:24:28.822Z,99478.27
2018-12-16T08:27:02.107Z,99475.39
2018-12-16T08:29:36.427Z,99471.73
2018-12-16T08:32:09.103Z,99460.00
2018-12-16T08:34:43.398Z,99474.39
2018-12-16T08:37:16.011Z,99458.67
2018-12-16T08:39:48.560Z,99469.20
2018-12-16T08:42:21.157Z,99465.17
2018-12-16T08:44:53.779Z,99478.59
2018-12-16T08:47:32.912Z,99469.44
2018-12-16T08:50:00.975Z,99459.41
2018-12-16T08:52:33.664Z,99459.73
2018-12-16T08:55:06.469Z,99460.03
2018-12-16T08:57:40.303Z,99465.50
2018-12-16T09:00:12.922Z,99459.23
2018-12-16T09:02:45.585Z,99465.20
2018-12-16T09:05:19.822Z,99468.41
2018-12-16T09:07:53.070Z,99469.97
2018-12-16T09:10:26.467Z,99473.03
2018-12-16T09:12:59.237Z,99468.27
2018-12-16T09:15:32.517Z,99475.23
2018-12-16T09:18:05.210Z,99471.30
2018-12-16T09:20:37.848Z,99468.86
2018-12-16T09:23:10.579Z,99476.80
2018-12-16T09:25:43.909Z,99472.47
2018-12-16T09:28:16.448Z,99475.36
2018-12-16T09:37:38.373Z,99464.86
2018-12-16T09:40:11.080Z,99471.62
2018-12-16T09:42:43.807Z,99470.35
2018-12-16T09:45:16.469Z,99470.80
2018-12-16T09:47:50.082Z,99472.66
2018-12-16T09:50:22.944Z,99472.47
2018-12-16T09:52:55.905Z,99473.36
2018-12-16T09:55:28.611Z,99461.52
2018-12-16T09:58:01.389Z,99473.63
2018-12-16T10:00:34.040Z,99459.72
2018-12-16T10:03:07.237Z,99462.90
2018-12-16T10:05:40.481Z,99458.44
2018-12-16T10:08:13.113Z,99454.40
2018-12-16T10:10:45.706Z,99454.93
2018-12-16T10:13:18.392Z,99455.45
2018-12-16T10:19:27.193Z,99453.00
2018-12-16T10:22:00.858Z,99456.58
2018-12-16T10:24:33.620Z,99449.95
2018-12-16T10:27:06.343Z,99447.31
2018-12-16T10:29:39.203Z,99446.94
2018-12-16T10:32:11.977Z,99449.88
2018-12-16T10:34:47.734Z,99445.18
2018-12-16T10:37:20.526Z,99441.67
2018-12-16T10:39:53.255Z,99438.84
2018-12-16T10:42:25.961Z,99433.50
2018-12-16T10:44:58.613Z,99432.56
2018-12-16T10:47:33.023Z,99432.11
2018-12-16T10:50:06.693Z,99431.38
2018-12-16T10:52:39.974Z,99431.08
2018-12-16T10:55:12.685Z,99426.34
2018-12-16T10:57:45.476Z,99422.47
2018-12-16T11:00:24.956Z,99424.25
2018-12-16T11:02:57.804Z,99423.69
2018-12-16T11:05:30.710Z,99420.64
2018-12-16T11:08:03.986Z,99416.62
2018-12-16T11:10:36.814Z,99419.84
2018-12-16T11:13:10.164Z,99415.81
2018-12-16T11:15:42.852Z,99415.89
2018-12-16T11:18:15.712Z,99419.02
2018-12-16T11:20:48.422Z,99412.36
2018-12-16T22:38:31.543Z,99723.15
2018-12-16T22:41:04.231Z,99725.52
2018-12-16T22:43:36.862Z,99723.69
2018-12-16T22:46:09.783Z,99724.53
2018-12-16T22:48:42.497Z,99713.21
2018-12-16T22:51:16.728Z,99719.06
2018-12-16T22:53:50.962Z,99720.03
2018-12-16T22:56:23.686Z,99719.55
2018-12-16T22:58:56.286Z,99710.80
2018-12-16T23:01:28.900Z,99718.12
2018-12-16T23:04:01.774Z,99709.28
2018-12-16T23:06:34.489Z,99712.72
2018-12-16T23:09:07.223Z,99715.40
2018-12-16T23:11:41.810Z,99711.38
2018-12-16T23:14:14.549Z,99708.97
2018-12-16T23:16:47.229Z,99708.26
2018-12-16T23:19:19.957Z,99707.27
2018-12-16T23:21:56.571Z,99715.05
2018-12-16T23:24:30.395Z,99712.77
2018-12-16T23:27:03.595Z,99713.17
2018-12-16T23:29:36.706Z,99712.86
2018-12-16T23:32:09.346Z,99718.59
2018-12-16T23:34:41.921Z,99709.28
2018-12-16T23:37:18.625Z,99712.80
2018-12-16T23:39:53.236Z,99712.84
2018-12-16T23:42:25.896Z,99707.23
2018-12-16T23:44:58.590Z,99705.36
2018-12-16T23:47:31.146Z,99704.02
2018-12-16T23:50:05.317Z,99711.88
2018-12-16T23:52:39.057Z,99712.79
2018-12-16T23:55:11.923Z,99714.73
2018-12-16T23:57:44.738Z,99716.42
